createdAt,value
2023-06-10T00:00:02.800Z,100446.03
2023-06-10T00:02:30.689Z,100449.66
2023-06-10T00:04:58.552Z,100401.91
2023-06-10T00:07:28.023Z,100437.28
2023-06-10T00:09:55.423Z,100440.94
2023-06-10T00:12:23.011Z,100434.13
2023-06-10T00:14:50.517Z,100423.50
2023-06-10T00:17:17.910Z,100429.88
2023-06-10T00:19:45.383Z,100420.72
2023-06-10T00:22:12.937Z,100371.69
2023-06-10T00:24:42.713Z,100359.28
2023-06-10T00:27:10.183Z,100396.91
2023-06-10T00:29:37.761Z,100367.25
2023-06-10T00:32:06.176Z,100402.31
2023-06-10T00:34:33.898Z,100416.34
2023-06-10T00:37:01.405Z,100378.06
2023-06-10T00:39:28.721Z,100416.28
2023-06-10T00:41:57.500Z,100421.78
2023-06-10T00:44:25.128Z,100413.72
2023-06-10T00:46:52.634Z,100370.72
2023-06-10T00:49:20.798Z,100416.72
2023-06-10T00:51:48.410Z,100425.00
2023-06-10T00:54:15.903Z,100401.19
2023-06-10T00:56:43.658Z,100416.47
2023-06-10T00:59:12.613Z,100406.06
2023-06-10T01:01:40.034Z,100378.59
2023-06-10T01:04:07.771Z,100410.66
2023-06-10T01:06:42.354Z,100362.03
2023-06-10T01:09:19.671Z,100410.84
2023-06-10T01:11:56.197Z,100401.28
2023-06-10T01:14:26.172Z,100410.22
2023-06-10T01:16:54.061Z,100355.94
2023-06-10T01:19:21.493Z,100322.88
2023-06-10T01:21:50.424Z,100395.84
2023-06-10T01:24:17.998Z,100396.28
2023-06-10T01:26:50.120Z,100403.09
2023-06-10T01:29:21.346Z,100397.03
2023-06-10T01:31:53.427Z,100402.25
2023-06-10T01:34:24.943Z,100406.06
2023-06-10T01:36:54.615Z,100406.50
2023-06-10T01:39:25.108Z,100369.00
2023-06-10T01:41:53.742Z,100398.41
2023-06-10T01:44:21.467Z,100341.00
2023-06-10T01:46:49.106Z,100412.56
2023-06-10T01:49:18.417Z,100376.81
2023-06-10T01:51:45.832Z,100412.75
2023-06-10T01:54:14.849Z,100370.44
2023-06-10T01:56:43.269Z,100380.72
2023-06-10T01:59:10.701Z,100417.28
2023-06-10T02:01:38.446Z,100414.88
2023-06-10T02:04:06.019Z,100320.94
2023-06-10T02:06:33.925Z,100405.63
2023-06-10T02:09:01.576Z,100355.91
2023-06-10T02:11:30.494Z,100373.16
2023-06-10T02:13:57.875Z,100340.56
2023-06-10T02:16:25.853Z,100359.72
2023-06-10T02:18:53.270Z,100409.63
2023-06-10T02:21:20.622Z,100385.69
2023-06-10T02:23:48.364Z,100368.66
2023-06-10T02:26:15.801Z,100320.00
2023-06-10T02:28:45.366Z,100412.91
2023-06-10T02:31:13.009Z,100403.03
2023-06-10T02:33:40.332Z,100420.19
2023-06-10T02:36:08.120Z,100333.06
2023-06-10T02:38:35.912Z,100339.69
2023-06-10T02:41:03.301Z,100410.13
2023-06-10T02:43:30.667Z,100332.25
2023-06-10T02:45:59.768Z,100379.56
2023-06-10T02:48:28.980Z,100348.53
2023-06-10T02:50:56.394Z,100381.28
2023-06-10T02:53:24.388Z,100369.56
2023-06-10T02:55:51.804Z,100369.31
2023-06-10T02:58:21.963Z,100414.06
2023-06-10T03:00:49.750Z,100407.13
2023-06-10T03:03:18.445Z,100413.38
2023-06-10T03:05:45.814Z,100349.75
2023-06-10T03:08:14.120Z,100408.00
2023-06-10T03:10:41.404Z,100397.16
2023-06-10T03:13:08.764Z,100412.66
2023-06-10T03:15:37.816Z,100413.16
2023-06-10T03:18:05.440Z,100398.59
2023-06-10T03:20:40.998Z,100352.38
2023-06-10T03:23:10.969Z,100397.56
2023-06-10T03:25:38.552Z,100405.03
2023-06-10T03:28:06.002Z,100320.47
2023-06-10T03:30:34.295Z,100356.41
2023-06-10T03:33:01.960Z,100406.94
2023-06-10T03:35:29.466Z,100400.97
2023-06-10T03:41:20.843Z,100313.31
2023-06-10T03:43:51.453Z,100318.19
2023-06-10T03:48:38.632Z,100307.88
2023-06-10T03:50:47.657Z,100305.84
2023-06-10T03:53:22.390Z,100300.81
2023-06-10T03:56:23.395Z,100350.50
2023-06-10T03:59:10.758Z,100311.34
2023-06-10T04:01:47.542Z,100363.38
2023-06-10T04:04:32.637Z,100307.47
2023-06-10T04:07:11.615Z,100312.56
2023-06-10T04:09:40.878Z,100354.38
2023-06-10T04:12:09.229Z,100347.31
2023-06-10T04:14:37.669Z,100316.50
2023-06-10T04:17:06.663Z,100364.25
2023-06-10T04:19:34.236Z,100365.84
2023-06-10T04:22:02.634Z,100304.41
2023-06-10T04:24:30.392Z,100349.06
2023-06-10T04:26:59.789Z,100367.22
2023-06-10T04:29:27.481Z,100353.44
2023-06-10T04:31:55.188Z,100378.66
2023-06-10T04:34:26.583Z,100344.81
2023-06-10T04:36:56.890Z,100353.56
2023-06-10T04:39:25.268Z,100348.00
2023-06-10T04:41:53.190Z,100327.94
2023-06-10T04:44:27.557Z,100312.91
2023-06-10T04:46:57.355Z,100353.69
2023-06-10T04:49:39.500Z,100289.81
2023-06-10T04:52:08.026Z,100311.53
2023-06-10T04:54:38.396Z,100338.00
2023-06-10T04:57:13.368Z,100360.94
2023-06-10T05:02:58.702Z,100296.09
2023-06-10T05:05:27.196Z,100346.69
2023-06-10T05:08:02.797Z,100312.91
2023-06-10T05:10:35.715Z,100306.00
2023-06-10T05:13:03.449Z,100358.13
2023-06-10T05:15:32.890Z,100388.38
2023-06-10T05:18:04.144Z,100337.31
2023-06-10T05:20:31.907Z,100386.84
2023-06-10T05:22:59.959Z,100295.56
2023-06-10T05:25:30.001Z,100325.50
2023-06-10T05:27:57.680Z,100346.09
2023-06-10T05:30:25.678Z,100329.31
2023-06-10T05:32:57.940Z,100325.94
2023-06-10T05:35:35.278Z,100294.28
2023-06-10T05:38:07.607Z,100295.00
2023-06-10T05:40:49.340Z,100282.16
2023-06-10T05:46:29.936Z,100299.13
2023-06-10T05:49:26.065Z,100303.03
2023-06-10T05:52:42.747Z,100287.91
2023-06-10T05:55:12.408Z,100321.53
2023-06-10T05:57:43.763Z,100297.34
2023-06-10T06:00:14.021Z,100284.81
2023-06-10T06:02:46.020Z,100333.59
2023-06-10T06:05:19.137Z,100329.31
2023-06-10T06:07:49.471Z,100315.16
2023-06-10T06:10:19.008Z,100284.13
2023-06-10T06:12:48.130Z,100369.75
2023-06-10T06:15:44.034Z,100301.31
2023-06-10T06:21:33.886Z,100295.81
2023-06-10T06:24:03.099Z,100295.97
2023-06-10T06:26:34.925Z,100315.75
2023-06-10T06:29:04.020Z,100339.88
2023-06-10T06:31:33.645Z,100326.97
2023-06-10T06:34:05.236Z,100273.84
2023-06-10T06:45:42.712Z,100269.59
2023-06-10T06:48:13.678Z,100317.84
2023-06-10T06:50:48.574Z,100279.19
2023-06-10T06:53:22.595Z,100272.63
2023-06-10T06:55:54.475Z,100303.94
2023-06-10T06:58:22.418Z,100302.78
2023-06-10T07:00:50.970Z,100272.25
2023-06-10T07:03:19.388Z,100310.97
2023-06-10T07:05:48.836Z,100274.91
2023-06-10T07:08:18.398Z,100340.34
2023-06-10T07:10:46.766Z,100289.28
2023-06-10T07:13:20.658Z,100263.97
2023-06-10T07:15:49.181Z,100266.56
2023-06-10T07:21:33.866Z,100331.84
2023-06-10T07:24:09.045Z,100330.19
2023-06-10T07:26:37.225Z,100292.94
2023-06-10T07:29:05.002Z,100340.41
2023-06-10T07:31:33.063Z,100296.47
2023-06-10T07:34:01.122Z,100302.94
2023-06-10T07:36:33.285Z,100266.13
2023-06-10T07:39:02.135Z,100270.31
2023-06-10T07:41:31.962Z,100331.50
2023-06-10T07:43:59.574Z,100320.91
2023-06-10T07:46:27.597Z,100283.41
2023-06-10T07:48:55.719Z,100252.38
2023-06-10T07:51:24.308Z,100286.16
2023-06-10T07:53:52.084Z,100269.34
2023-06-10T07:56:21.359Z,100304.00
2023-06-10T07:58:51.392Z,100300.28
2023-06-10T08:01:19.068Z,100251.44
2023-06-10T08:03:46.760Z,100295.19
2023-06-10T08:06:14.257Z,100328.72
2023-06-10T08:08:41.813Z,100269.19
2023-06-10T08:11:09.435Z,100326.72
2023-06-10T08:13:36.888Z,100333.03
2023-06-10T08:16:06.284Z,100323.44
2023-06-10T08:18:33.968Z,100287.69
2023-06-10T08:21:01.451Z,100325.91
2023-06-10T08:23:29.837Z,100305.28
2023-06-10T08:25:57.494Z,100322.34
2023-06-10T08:28:25.507Z,100317.66
2023-06-10T08:30:58.910Z,100296.00
2023-06-10T08:33:29.392Z,100295.16
2023-06-10T08:35:56.883Z,100287.88
2023-06-10T08:38:28.609Z,100254.06
2023-06-10T08:41:10.190Z,100289.59
2023-06-10T08:44:03.875Z,100222.22
2023-06-10T08:46:35.498Z,100233.06
2023-06-10T08:49:07.733Z,100310.75
2023-06-10T08:51:57.548Z,100282.44
2023-06-10T08:54:44.297Z,100232.09
2023-06-10T08:57:15.194Z,100275.31
2023-06-10T08:59:42.883Z,100265.00
2023-06-10T09:02:17.076Z,100253.78
2023-06-10T09:04:51.021Z,100298.25
2023-06-10T09:07:18.565Z,100292.06
2023-06-10T09:09:46.878Z,100239.03
2023-06-10T09:12:16.356Z,100241.47
2023-06-10T09:14:44.473Z,100297.25
2023-06-10T09:17:13.393Z,100256.66
2023-06-10T09:19:43.053Z,100268.06
2023-06-10T09:22:12.124Z,100287.47
2023-06-10T09:24:40.744Z,100296.66
2023-06-10T09:27:09.986Z,100228.97
2023-06-10T09:29:54.661Z,100223.03
2023-06-10T09:32:23.059Z,100274.59
2023-06-10T09:34:50.817Z,100258.44
2023-06-10T09:37:23.728Z,100288.97
2023-06-10T09:40:05.619Z,100292.97
2023-06-10T09:42:37.360Z,100219.84
2023-06-10T09:45:06.198Z,100284.88
2023-06-10T09:47:33.734Z,100234.59
2023-06-10T09:50:01.400Z,100248.75
2023-06-10T09:52:31.060Z,100266.53
2023-06-10T09:55:01.470Z,100271.31
2023-06-10T09:57:32.784Z,100269.69
2023-06-10T10:00:08.318Z,100254.88
2023-06-10T10:02:45.604Z,100229.13
2023-06-10T10:05:15.092Z,100206.25
2023-06-10T10:07:45.842Z,100250.69
2023-06-10T10:10:14.747Z,100277.53
2023-06-10T10:12:43.720Z,100236.53
2023-06-10T10:15:12.550Z,100253.44
2023-06-10T10:17:46.273Z,100249.44
2023-06-10T10:20:15.934Z,100204.00
2023-06-10T10:22:52.357Z,100209.19
2023-06-10T10:25:29.830Z,100178.34
2023-06-10T10:28:07.563Z,100244.94
2023-06-10T10:30:40.886Z,100176.81
2023-06-10T10:33:17.655Z,100236.94
2023-06-10T10:35:47.270Z,100236.78
2023-06-10T10:38:16.896Z,100189.41
2023-06-10T10:40:47.113Z,100219.16
2023-06-10T10:43:16.491Z,100162.19
2023-06-10T10:45:46.321Z,100191.16
2023-06-10T10:48:15.722Z,100219.81
2023-06-10T10:50:57.182Z,100229.41
2023-06-10T10:53:26.688Z,100152.66
2023-06-10T10:56:05.542Z,100189.50
2023-06-10T10:58:36.446Z,100137.97
2023-06-10T11:01:19.052Z,100216.53
2023-06-10T11:03:48.257Z,100138.88
2023-06-10T11:06:24.151Z,100151.84
2023-06-10T11:09:05.362Z,100208.50
2023-06-10T11:11:53.425Z,100137.56
2023-06-10T11:14:30.047Z,100191.56
2023-06-10T11:17:00.118Z,100135.47
2023-06-10T11:19:41.439Z,100140.75
2023-06-10T11:22:20.887Z,100181.81
2023-06-10T11:29:07.498Z,100203.94
2023-06-10T11:31:44.189Z,100159.47
2023-06-10T11:34:12.578Z,100206.06
2023-06-10T11:43:02.407Z,100149.97
2023-06-10T11:45:44.745Z,100171.00
2023-06-10T11:48:13.714Z,100129.81
2023-06-10T11:50:41.724Z,100145.59
2023-06-10T11:53:10.083Z,100173.25
2023-06-10T11:55:45.422Z,100147.69
2023-06-10T11:58:19.081Z,100141.03
2023-06-10T12:00:49.930Z,100166.97
2023-06-10T12:03:49.170Z,100098.94
2023-06-10T12:06:17.148Z,100090.09
2023-06-10T12:08:47.152Z,100125.53
2023-06-10T12:11:14.878Z,100110.72
2023-06-10T12:13:47.915Z,100101.31
2023-06-10T12:16:27.525Z,100148.44
2023-06-10T12:19:03.235Z,100096.69
2023-06-10T12:21:32.574Z,100109.84
2023-06-10T12:24:10.437Z,100077.66
2023-06-10T12:26:40.406Z,100104.66
2023-06-10T12:29:20.508Z,100084.81
2023-06-10T12:32:08.118Z,100108.44
2023-06-10T12:38:00.470Z,100137.88
2023-06-10T12:43:29.519Z,100066.50
2023-06-10T12:46:15.780Z,100069.78
2023-06-10T12:49:37.165Z,100115.72
2023-06-10T12:52:07.170Z,100068.78
2023-06-10T12:54:35.668Z,100062.47
2023-06-10T12:57:07.092Z,100094.91
2023-06-10T12:59:38.529Z,100125.16
